createdAt,value
2022-10-28T00:00:50.347Z,100.00
2022-10-28T00:03:19.809Z,100.00
2022-10-28T00:05:47.732Z,100.00
2022-10-28T00:08:15.349Z,100.00
2022-10-28T00:10:43.046Z,100.00
2022-10-28T00:13:13.159Z,100.00
2022-10-28T00:15:40.813Z,100.00
2022-10-28T00:18:08.845Z,100.00
2022-10-28T00:20:37.887Z,100.00
2022-10-28T00:23:05.549Z,100.00
2022-10-28T00:25:33.249Z,100.00
2022-10-28T00:28:00.908Z,100.00
2022-10-28T00:30:28.581Z,100.00
2022-10-28T00:32:56.431Z,100.00
2022-10-28T00:35:24.587Z,100.00
2022-10-28T00:37:55.252Z,100.00
2022-10-28T00:40:23.167Z,100.00
2022-10-28T00:42:51.778Z,100.00
2022-10-28T00:45:19.825Z,100.00
2022-10-28T00:47:52.549Z,100.00
2022-10-28T00:50:30.371Z,100.00
2022-10-28T00:53:01.945Z,100.00
2022-10-28T00:55:30.179Z,100.00
2022-10-28T00:57:58.741Z,100.00
2022-10-28T01:00:27.097Z,100.00
2022-10-28T01:02:54.938Z,100.00
2022-10-28T01:05:23.934Z,100.00
2022-10-28T01:07:53.076Z,100.00
2022-10-28T01:10:24.488Z,100.00
2022-10-28T01:12:59.913Z,100.00
2022-10-28T01:15:35.102Z,100.00
2022-10-28T01:18:10.286Z,100.00
2022-10-28T01:21:07.495Z,100.00
2022-10-28T01:23:39.264Z,100.00
2022-10-28T01:26:30.977Z,100.00
2022-10-28T01:29:20.873Z,100.00
2022-10-28T01:31:51.667Z,100.00
2022-10-28T01:34:25.485Z,100.00
2022-10-28T01:36:59.187Z,100.00
2022-10-28T01:39:32.315Z,100.00
2022-10-28T01:42:15.495Z,100.00
2022-10-28T01:44:49.353Z,100.00
2022-10-28T01:47:21.693Z,100.00
2022-10-28T01:49:53.566Z,100.00
2022-10-28T01:52:23.551Z,100.00
2022-10-28T01:54:53.777Z,100.00
2022-10-28T01:57:23.731Z,100.00
2022-10-28T01:59:51.510Z,100.00
2022-10-28T02:02:20.588Z,100.00
2022-10-28T02:04:48.219Z,100.00
2022-10-28T02:07:16.202Z,100.00
2022-10-28T02:09:57.069Z,100.00
2022-10-28T02:12:29.125Z,100.00
2022-10-28T02:15:12.184Z,100.00
2022-10-28T02:17:50.050Z,100.00
2022-10-28T02:20:22.565Z,100.00
2022-10-28T02:22:52.756Z,100.00
2022-10-28T02:25:22.481Z,100.00
2022-10-28T02:27:55.146Z,100.00
2022-10-28T02:30:25.494Z,100.00
2022-10-28T02:32:58.298Z,100.00
2022-10-28T02:35:29.349Z,100.00
2022-10-28T02:37:57.946Z,100.00
2022-10-28T02:40:27.579Z,100.00
2022-10-28T02:42:57.471Z,100.00
2022-10-28T02:45:28.354Z,100.00
2022-10-28T02:47:59.768Z,100.00
2022-10-28T02:50:32.686Z,100.00
2022-10-28T02:53:01.634Z,100.00
2022-10-28T02:55:33.974Z,100.00
2022-10-28T02:58:01.666Z,100.00
2022-10-28T03:00:29.345Z,100.00
2022-10-28T03:02:58.429Z,100.00
2022-10-28T03:05:26.064Z,100.00
2022-10-28T03:07:54.058Z,100.00
2022-10-28T03:10:22.005Z,100.00
2022-10-28T03:12:49.654Z,100.00
2022-10-28T03:15:17.349Z,100.00
2022-10-28T03:17:44.992Z,100.00
2022-10-28T03:20:14.443Z,100.00
2022-10-28T03:22:44.053Z,100.00
2022-10-28T03:25:11.809Z,100.00
2022-10-28T03:27:41.112Z,100.00
2022-10-28T03:30:09.669Z,100.00
2022-10-28T03:32:37.270Z,100.00
2022-10-28T03:35:05.913Z,100.00
2022-10-28T03:37:34.899Z,100.00
2022-10-28T03:40:02.983Z,100.00
2022-10-28T03:42:30.643Z,100.00
2022-10-28T03:44:58.286Z,100.00
2022-10-28T03:47:25.907Z,100.00
2022-10-28T03:49:53.576Z,100.00
2022-10-28T03:52:21.217Z,100.00
2022-10-28T03:54:50.295Z,100.00
2022-10-28T03:57:17.920Z,100.00
2022-10-28T03:59:45.653Z,100.00
2022-10-28T04:02:15.585Z,100.00
2022-10-28T04:04:43.407Z,100.00
2022-10-28T04:07:11.054Z,100.00
2022-10-28T04:09:38.773Z,100.00
2022-10-28T04:12:08.496Z,100.00
2022-10-28T04:14:36.117Z,100.00
2022-10-28T04:17:03.766Z,100.00
2022-10-28T04:19:31.378Z,100.00
2022-10-28T04:21:58.993Z,100.00
2022-10-28T04:24:26.580Z,100.00
2022-10-28T04:26:54.376Z,100.00
2022-10-28T04:29:23.432Z,100.00
2022-10-28T04:31:52.287Z,100.00
2022-10-28T04:34:20.215Z,100.00
2022-10-28T04:36:47.853Z,100.00
2022-10-28T04:39:15.620Z,100.00
2022-10-28T04:41:43.295Z,100.00
2022-10-28T04:44:10.973Z,100.00
2022-10-28T04:46:40.054Z,100.00
2022-10-28T04:49:07.754Z,100.00
2022-10-28T04:51:35.472Z,100.00
2022-10-28T04:54:03.430Z,100.00
2022-10-28T04:56:33.230Z,100.00
2022-10-28T04:59:01.113Z,100.00
2022-10-28T05:01:28.864Z,100.00
2022-10-28T05:03:58.214Z,100.00
2022-10-28T05:06:25.924Z,100.00
2022-10-28T05:08:53.605Z,100.00
2022-10-28T05:11:21.380Z,100.00
2022-10-28T05:13:49.103Z,100.00
2022-10-28T05:16:16.967Z,100.00
2022-10-28T05:21:13.784Z,100.00
2022-10-28T05:23:41.419Z,100.00
2022-10-28T05:26:09.132Z,100.00
2022-10-28T05:28:36.789Z,100.00
2022-10-28T05:31:04.676Z,100.00
2022-10-28T05:33:33.535Z,100.00
2022-10-28T05:36:01.570Z,100.00
2022-10-28T05:38:30.720Z,100.00
2022-10-28T05:40:58.431Z,100.00
2022-10-28T05:43:26.138Z,100.00
2022-10-28T05:45:54.196Z,100.00
2022-10-28T05:48:21.935Z,100.00
2022-10-28T05:50:50.265Z,100.00
2022-10-28T05:53:18.176Z,100.00
2022-10-28T05:55:47.949Z,100.00
2022-10-28T05:58:16.516Z,100.00
2022-10-28T06:00:44.174Z,100.00
2022-10-28T06:03:12.760Z,100.00
2022-10-28T06:05:42.661Z,100.00
2022-10-28T06:08:12.007Z,100.00
2022-10-28T06:10:39.732Z,100.00
2022-10-28T06:13:08.096Z,100.00
2022-10-28T06:15:35.814Z,100.00
2022-10-28T06:18:03.676Z,100.00
2022-10-28T06:20:31.631Z,100.00
2022-10-28T06:22:59.434Z,100.00
2022-10-28T06:25:27.101Z,100.00
2022-10-28T06:27:55.811Z,100.00
2022-10-28T06:30:26.435Z,100.00
2022-10-28T06:32:56.362Z,100.00
2022-10-28T06:35:24.183Z,100.00
2022-10-28T06:37:54.603Z,100.00
2022-10-28T06:40:22.804Z,100.00
2022-10-28T06:42:57.013Z,100.00
2022-10-28T06:45:26.354Z,100.00
2022-10-28T06:47:59.122Z,100.00
2022-10-28T06:50:27.350Z,100.00
2022-10-28T06:52:57.059Z,100.00
2022-10-28T06:55:25.148Z,100.00
2022-10-28T06:57:53.196Z,100.00
2022-10-28T07:00:21.690Z,100.00
2022-10-28T07:02:53.963Z,100.00
2022-10-28T07:05:22.270Z,100.00
2022-10-28T07:07:50.078Z,100.00
2022-10-28T07:10:17.837Z,100.00
2022-10-28T07:12:45.537Z,100.00
2022-10-28T07:15:13.221Z,100.00
2022-10-28T07:17:40.891Z,100.00
2022-10-28T07:20:11.828Z,100.00
2022-10-28T07:22:39.577Z,100.00
2022-10-28T07:25:08.447Z,100.00
2022-10-28T07:27:36.097Z,100.00
2022-10-28T07:30:03.807Z,100.00
2022-10-28T07:32:33.189Z,100.00
2022-10-28T07:35:01.077Z,100.00
2022-10-28T07:37:30.197Z,100.00
2022-10-28T07:39:57.972Z,100.00
2022-10-28T07:42:25.884Z,100.00
2022-10-28T07:44:53.597Z,100.00
2022-10-28T07:47:22.296Z,100.00
2022-10-28T07:49:50.012Z,100.00
2022-10-28T07:52:18.017Z,100.00
2022-10-28T07:54:47.118Z,100.00
2022-10-28T07:57:14.831Z,100.00
2022-10-28T07:59:42.528Z,100.00
2022-10-28T08:02:11.682Z,100.00
2022-10-28T08:04:39.380Z,100.00
2022-10-28T08:07:07.129Z,100.00
2022-10-28T08:09:34.809Z,100.00
2022-10-28T08:12:04.298Z,100.00
2022-10-28T08:14:32.022Z,100.00
2022-10-28T08:16:59.932Z,100.00
2022-10-28T08:19:27.935Z,100.00
2022-10-28T08:21:55.735Z,100.00
2022-10-28T08:24:23.549Z,100.00
2022-10-28T08:26:51.373Z,100.00
2022-10-28T08:29:20.679Z,100.00
2022-10-28T08:31:48.402Z,100.00
2022-10-28T08:34:16.237Z,100.00
2022-10-28T08:36:44.134Z,100.00
2022-10-28T08:39:12.018Z,100.00
2022-10-28T08:41:41.410Z,100.00
2022-10-28T08:44:31.985Z,100.00
2022-10-28T08:47:10.379Z,100.00
2022-10-28T08:49:43.427Z,100.00
2022-10-28T08:52:23.026Z,100.00
2022-10-28T08:54:53.668Z,100.00
2022-10-28T08:57:23.458Z,100.00
2022-10-28T08:59:54.137Z,100.00
2022-10-28T09:02:23.377Z,100.00
2022-10-28T09:04:54.851Z,100.00
2022-10-28T09:07:23.484Z,99.99
2022-10-28T09:09:52.292Z,100.00
2022-10-28T09:12:29.262Z,97.28
2022-10-28T09:15:08.425Z,98.03
2022-10-28T09:17:43.521Z,97.87
2022-10-28T09:20:18.814Z,95.27
2022-10-28T09:22:51.779Z,94.29
2022-10-28T09:25:25.125Z,93.62
2022-10-28T09:28:21.339Z,91.74
2022-10-28T09:30:58.324Z,91.61
2022-10-28T09:33:52.625Z,94.34
2022-10-28T09:36:23.799Z,92.29
2022-10-28T09:38:53.865Z,89.94
2022-10-28T09:41:23.979Z,92.88
2022-10-28T09:43:54.673Z,90.93
2022-10-28T09:46:25.651Z,87.06
2022-10-28T09:48:56.170Z,87.88
2022-10-28T09:51:29.698Z,88.96
2022-10-28T09:53:59.017Z,88.87
2022-10-28T09:56:28.349Z,84.97
2022-10-28T09:58:58.669Z,85.36
2022-10-28T10:01:30.318Z,87.12
2022-10-28T10:03:58.218Z,85.87
2022-10-28T10:06:29.076Z,81.86
2022-10-28T10:08:57.378Z,84.59
2022-10-28T10:11:29.957Z,83.66
2022-10-28T10:13:59.495Z,79.13
2022-10-28T10:16:35.833Z,80.68
2022-10-28T10:19:04.736Z,76.55
2022-10-28T10:21:43.559Z,79.88
2022-10-28T10:24:24.081Z,79.28
2022-10-28T10:26:52.463Z,77.29
2022-10-28T10:29:20.584Z,78.52
2022-10-28T10:31:50.160Z,76.80
2022-10-28T10:34:23.918Z,78.41
2022-10-28T10:36:53.632Z,71.98
2022-10-28T10:39:26.328Z,68.91
2022-10-28T10:41:55.993Z,71.53
2022-10-28T10:44:33.611Z,73.08
2022-10-28T10:47:24.586Z,66.95
2022-10-28T10:49:52.338Z,68.39
2022-10-28T10:52:26.111Z,70.55
2022-10-28T10:55:03.785Z,72.35
2022-10-28T10:57:32.190Z,64.62
2022-10-28T11:00:00.284Z,67.70
2022-10-28T11:02:34.894Z,67.17
2022-10-28T11:05:05.288Z,69.40
2022-10-28T11:07:33.705Z,65.69
2022-10-28T11:10:02.126Z,64.55
2022-10-28T11:12:32.177Z,64.05
2022-10-28T11:15:01.382Z,67.00
2022-10-28T11:20:01.832Z,66.81
2022-10-28T11:22:46.283Z,63.03
2022-10-28T11:25:36.720Z,63.46
2022-10-28T11:28:29.703Z,63.36
2022-10-28T11:31:05.080Z,64.03
2022-10-28T11:33:41.250Z,59.46
2022-10-28T11:36:17.621Z,63.40
2022-10-28T11:38:56.234Z,67.21
2022-10-28T11:41:31.399Z,65.10
2022-10-28T11:44:04.976Z,65.33
2022-10-28T11:46:46.661Z,62.13
2022-10-28T11:49:38.645Z,64.83
2022-10-28T11:52:16.133Z,63.20
2022-10-28T11:54:55.165Z,64.35
2022-10-28T11:57:27.366Z,65.10
2022-10-28T12:00:08.510Z,61.31
2022-10-28T12:02:53.566Z,61.17
2022-10-28T12:05:25.714Z,58.35
2022-10-28T12:08:05.853Z,53.30
2022-10-28T12:10:42.341Z,57.40
2022-10-28T12:13:18.259Z,55.92
2022-10-28T12:15:52.038Z,57.32
2022-10-28T12:18:24.394Z,55.50
2022-10-28T12:20:59.031Z,57.26
2022-10-28T12:23:27.606Z,57.69
2022-10-28T12:25:58.109Z,57.53
2022-10-28T12:28:29.293Z,57.84
2022-10-28T12:30:58.397Z,57.43
2022-10-28T12:33:29.116Z,57.41
2022-10-28T12:36:19.549Z,56.00
2022-10-28T12:38:53.526Z,57.87
2022-10-28T12:41:24.373Z,58.20
2022-10-28T12:43:54.410Z,57.78
2022-10-28T12:46:27.488Z,54.69
2022-10-28T12:48:59.069Z,56.30
2022-10-28T12:51:31.115Z,59.17
2022-10-28T12:54:02.145Z,58.72
2022-10-28T12:56:33.176Z,57.11
2022-10-28T12:59:05.829Z,57.34
2022-10-28T13:01:34.873Z,57.39
2022-10-28T13:07:35.968Z,61.36
2022-10-28T13:10:13.601Z,62.55
2022-10-28T13:13:24.090Z,58.48
2022-10-28T13:16:16.848Z,59.21
2022-10-28T13:19:09.195Z,57.70
2022-10-28T13:22:02.029Z,56.96
2022-10-28T13:24:40.372Z,59.05
2022-10-28T13:27:13.169Z,60.34
2022-10-28T13:29:44.483Z,59.73
2022-10-28T13:32:37.501Z,57.01
2022-10-28T13:35:20.159Z,57.46
2022-10-28T13:37:51.516Z,59.76
2022-10-28T13:40:43.579Z,57.70
2022-10-28T13:43:22.319Z,58.77
2022-10-28T13:45:53.289Z,59.30
2022-10-28T13:48:46.342Z,55.18
2022-10-28T13:51:36.500Z,54.92
2022-10-28T13:54:25.966Z,54.28
2022-10-28T13:56:57.976Z,55.63
2022-10-28T13:59:29.642Z,55.98
2022-10-28T14:02:32.437Z,52.90
2022-10-28T14:04:55.722Z,54.77
2022-10-28T14:07:27.832Z,57.22
2022-10-28T14:09:59.435Z,58.12
2022-10-28T14:12:30.973Z,58.71
2022-10-28T14:15:05.796Z,56.83
2022-10-28T14:17:44.068Z,55.93
2022-10-28T14:20:30.007Z,55.31
2022-10-28T14:22:57.989Z,57.93
2022-10-28T14:26:00.627Z,54.66
2022-10-28T14:28:57.262Z,55.23
2022-10-28T14:31:39.096Z,55.73
2022-10-28T14:34:38.909Z,54.33
2022-10-28T14:37:28.613Z,53.00
2022-10-28T14:40:09.639Z,56.16
2022-10-28T14:42:53.221Z,54.48
2022-10-28T14:45:33.981Z,55.86
2022-10-28T14:48:31.928Z,56.03
2022-10-28T14:51:01.363Z,56.62
2022-10-28T14:53:31.294Z,57.46
2022-10-28T14:56:01.305Z,57.08
2022-10-28T14:58:31.497Z,56.87
2022-10-28T15:01:21.863Z,57.62
2022-10-28T15:03:52.115Z,59.10
2022-10-28T15:06:28.262Z,59.53
2022-10-28T15:08:56.549Z,60.95
2022-10-28T15:11:24.389Z,62.84
2022-10-28T15:13:53.800Z,64.21
2022-10-28T15:16:24.390Z,65.37
2022-10-28T15:18:55.207Z,65.15
2022-10-28T15:21:23.945Z,66.07
2022-10-28T15:24:01.744Z,67.00
2022-10-28T15:26:29.595Z,68.77
2022-10-28T15:28:57.288Z,69.73
2022-10-28T15:31:26.597Z,70.31
2022-10-28T15:33:54.292Z,71.80
2022-10-28T15:36:23.920Z,72.52
2022-10-28T15:38:52.137Z,73.40
2022-10-28T15:41:49.287Z,74.72
2022-10-28T15:44:32.647Z,75.64
2022-10-28T15:47:06.140Z,76.43
2022-10-28T15:49:38.593Z,76.09
2022-10-28T15:52:23.997Z,75.76
2022-10-28T15:54:58.254Z,75.88
2022-10-28T15:57:27.688Z,75.83
2022-10-28T16:00:19.694Z,76.80
2022-10-28T16:02:56.690Z,77.50
2022-10-28T16:05:55.923Z,77.88
2022-10-28T16:08:25.787Z,78.54
2022-10-28T16:10:56.359Z,78.74
2022-10-28T16:13:30.676Z,79.39
2022-10-28T16:16:01.219Z,80.20
2022-10-28T16:18:31.225Z,80.98
2022-10-28T16:21:00.116Z,82.71
2022-10-28T16:23:33.886Z,82.40
2022-10-28T16:26:01.584Z,83.46
2022-10-28T16:28:30.427Z,84.42
2022-10-28T16:30:59.584Z,85.89
2022-10-28T16:33:32.451Z,85.69
2022-10-28T16:36:00.689Z,86.65
2022-10-28T16:38:28.359Z,89.74
2022-10-28T16:40:56.183Z,92.41
2022-10-28T16:43:25.060Z,92.97
2022-10-28T16:45:53.520Z,93.15
2022-10-28T16:48:22.506Z,94.38
2022-10-28T16:50:52.965Z,96.36
2022-10-28T16:53:21.017Z,96.94
2022-10-28T16:55:49.175Z,96.34
2022-10-28T16:58:17.232Z,96.34
2022-10-28T17:00:46.951Z,96.35
2022-10-28T17:03:15.776Z,96.44
2022-10-28T17:05:44.020Z,97.32
2022-10-28T17:08:13.263Z,97.87
2022-10-28T17:10:41.825Z,98.31
2022-10-28T17:13:12.063Z,97.44
2022-10-28T17:15:39.844Z,96.96
2022-10-28T17:18:07.710Z,97.66
2022-10-28T17:20:35.356Z,98.77
2022-10-28T17:23:03.111Z,98.93
2022-10-28T17:25:32.588Z,97.53
2022-10-28T17:28:00.386Z,99.39
2022-10-28T17:30:28.227Z,99.51
2022-10-28T17:32:55.999Z,100.00
2022-10-28T17:35:23.771Z,100.00
2022-10-28T17:37:51.634Z,100.00
2022-10-28T17:40:19.614Z,100.00
2022-10-28T17:42:48.779Z,100.00
2022-10-28T17:45:19.556Z,100.00
2022-10-28T17:47:49.764Z,100.00
2022-10-28T17:50:17.947Z,100.00
2022-10-28T17:52:45.640Z,100.00
2022-10-28T17:55:13.589Z,100.00
2022-10-28T17:57:41.373Z,100.00
2022-10-28T18:00:12.197Z,100.00
2022-10-28T18:02:40.513Z,100.00
2022-10-28T18:05:09.144Z,100.00
2022-10-28T18:07:36.904Z,100.00
2022-10-28T18:10:05.195Z,100.00
2022-10-28T18:12:32.924Z,100.00
2022-10-28T18:15:00.645Z,100.00
2022-10-28T18:17:29.723Z,100.00
2022-10-28T18:19:57.750Z,100.00
2022-10-28T18:24:54.054Z,100.00
2022-10-28T18:27:21.747Z,100.00
2022-10-28T18:29:49.358Z,100.00
2022-10-28T18:32:17.523Z,100.00
2022-10-28T18:34:46.614Z,100.00
2022-10-28T18:37:14.386Z,100.00
2022-10-28T18:39:42.028Z,100.00
2022-10-28T18:42:12.282Z,100.00
2022-10-28T18:44:41.451Z,100.00
2022-10-28T18:47:09.193Z,100.00
2022-10-28T18:49:36.863Z,100.00
2022-10-28T18:52:06.081Z,100.00
2022-10-28T18:54:34.457Z,100.00
2022-10-28T18:57:02.130Z,100.00
2022-10-28T18:59:29.776Z,100.00
2022-10-28T19:01:57.688Z,100.00
2022-10-28T19:04:25.576Z,100.00
2022-10-28T19:06:53.227Z,100.00
2022-10-28T19:09:22.276Z,100.00
2022-10-28T19:11:50.011Z,100.00
2022-10-28T19:14:17.896Z,100.00
2022-10-28T19:16:45.576Z,100.00
2022-10-28T19:19:13.306Z,100.00
2022-10-28T19:21:40.989Z,100.00
2022-10-28T19:24:09.304Z,100.00
2022-10-28T19:26:39.414Z,100.00
2022-10-28T19:29:07.186Z,100.00
2022-10-28T19:31:36.838Z,100.00
2022-10-28T19:34:04.512Z,100.00
2022-10-28T19:36:32.154Z,100.00
2022-10-28T19:38:59.912Z,100.00
2022-10-28T19:41:29.096Z,100.00
2022-10-28T19:43:59.445Z,100.00
2022-10-28T19:46:27.903Z,100.00
2022-10-28T19:48:57.313Z,100.00
2022-10-28T19:51:27.292Z,100.00
2022-10-28T19:53:56.815Z,100.00
2022-10-28T19:56:24.811Z,100.00
2022-10-28T19:58:54.610Z,100.00
2022-10-28T20:01:24.993Z,100.00
2022-10-28T20:03:53.762Z,100.00
2022-10-28T20:06:23.276Z,100.00
2022-10-28T20:08:51.194Z,100.00
2022-10-28T20:11:24.877Z,100.00
2022-10-28T20:13:54.781Z,100.00
2022-10-28T20:16:24.657Z,100.00
2022-10-28T20:18:52.287Z,100.00
2022-10-28T20:21:21.323Z,100.00
2022-10-28T20:26:18.868Z,100.00
2022-10-28T20:28:46.918Z,100.00
2022-10-28T20:31:15.787Z,100.00
2022-10-28T20:33:45.683Z,100.00
2022-10-28T20:36:23.264Z,100.00
2022-10-28T20:38:54.253Z,100.00
2022-10-28T20:41:22.483Z,100.00
2022-10-28T20:43:51.326Z,100.00
2022-10-28T20:46:20.284Z,100.00
2022-10-28T20:48:50.124Z,100.00
2022-10-28T20:51:18.030Z,100.00
2022-10-28T20:53:45.735Z,100.00
2022-10-28T20:56:16.890Z,100.00
2022-10-28T20:58:44.636Z,100.00
2022-10-28T21:01:14.674Z,100.00
2022-10-28T21:03:42.573Z,100.00
2022-10-28T21:08:45.115Z,100.00
2022-10-28T21:11:14.725Z,100.00
2022-10-28T21:13:42.972Z,100.00
2022-10-28T21:16:12.766Z,100.00
2022-10-28T21:18:41.259Z,100.00
2022-10-28T21:21:08.975Z,100.00
2022-10-28T21:23:38.063Z,100.00
2022-10-28T21:26:07.209Z,100.00
2022-10-28T21:28:35.792Z,100.00
2022-10-28T21:31:04.954Z,100.00
2022-10-28T21:33:32.707Z,100.00
2022-10-28T21:36:01.899Z,100.00
2022-10-28T21:38:30.342Z,100.00
2022-10-28T21:41:03.208Z,100.00
2022-10-28T21:43:31.944Z,100.00
2022-10-28T21:45:59.862Z,100.00
2022-10-28T21:48:27.773Z,100.00
2022-10-28T21:50:56.790Z,100.00
2022-10-28T21:53:25.016Z,100.00
2022-10-28T21:55:54.867Z,100.00
2022-10-28T21:58:24.586Z,100.00
2022-10-28T22:00:52.241Z,100.00
2022-10-28T22:03:19.973Z,100.00
2022-10-28T22:05:51.558Z,100.00
2022-10-28T22:08:19.228Z,100.00
2022-10-28T22:10:46.902Z,100.00
2022-10-28T22:13:14.543Z,100.00
2022-10-28T22:15:43.653Z,100.00
2022-10-28T22:18:11.266Z,100.00
2022-10-28T22:20:39.065Z,100.00
2022-10-28T22:23:06.804Z,100.00
2022-10-28T22:25:34.584Z,100.00
2022-10-28T22:28:02.264Z,100.00
2022-10-28T22:30:29.963Z,100.00
2022-10-28T22:32:58.996Z,100.00
2022-10-28T22:35:26.631Z,100.00
2022-10-28T22:37:54.614Z,100.00
2022-10-28T22:40:22.484Z,100.00
2022-10-28T22:42:50.263Z,100.00
2022-10-28T22:45:18.220Z,100.00
2022-10-28T22:47:45.914Z,100.00
2022-10-28T22:50:14.947Z,100.00
2022-10-28T22:52:42.612Z,100.00
2022-10-28T22:55:11.032Z,100.00
2022-10-28T22:57:38.721Z,100.00
2022-10-28T23:00:07.534Z,100.00
2022-10-28T23:02:35.342Z,100.00
2022-10-28T23:05:03.112Z,100.00
2022-10-28T23:07:32.244Z,100.00
2022-10-28T23:10:00.533Z,100.00
2022-10-28T23:12:28.170Z,100.00
2022-10-28T23:14:55.872Z,100.00
2022-10-28T23:17:23.484Z,100.00
2022-10-28T23:19:51.087Z,100.00
2022-10-28T23:22:18.753Z,100.00
2022-10-28T23:24:47.784Z,100.00
2022-10-28T23:27:15.463Z,100.00
2022-10-28T23:29:43.240Z,100.00
2022-10-28T23:32:10.945Z,100.00
2022-10-28T23:34:38.633Z,100.00
2022-10-28T23:37:06.326Z,100.00
2022-10-28T23:39:33.955Z,100.00
2022-10-28T23:42:03.121Z,100.00
2022-10-28T23:44:30.767Z,100.00
2022-10-28T23:46:58.392Z,100.00
2022-10-28T23:49:26.021Z,100.00
2022-10-28T23:51:53.649Z,100.00
2022-10-28T23:54:21.321Z,100.00
2022-10-28T23:56:48.997Z,100.00
2022-10-28T23:59:18.035Z,100.00
